This is the latest recevied weather packets stored in our database for station/object AI4ZL. If no packets are shown the sender has not sent any weather packets the latest 10 day(s).
| Time | Temp. | Humidity | Pressure | Rain* | Wind** | Luminosity | Snow |
|---|---|---|---|---|---|---|---|
| 1777790432 | 4.44° C | 99% | 1021.6 hPa | 0 mm | - | 0 W/m² | - |
| 1777779620 | 6.11° C | 97% | 1021.5 hPa | 0 mm | - | 0 W/m² | - |
| 1777773023 | 8.33° C | 89% | 1021.1 hPa | 0 mm | - | 0 W/m² | - |
| 1777765833 | 14.44° C | 63% | 1020.3 hPa | 0 mm | - | 44 W/m² | - |
| 1777763418 | 14.44° C | 63% | 1020.3 hPa | 0 mm | - | 153 W/m² | - |
| 1777762823 | 14.44° C | 63% | 1020.2 hPa | 0 mm | - | 180 W/m² | - |
| 1777760426 | 16.67° C | 61% | 1019.7 hPa | 0 mm | - | 231 W/m² | - |
| 1777759831 | 16.11° C | 63% | 1019.7 hPa | 0 mm | - | 301 W/m² | - |
| 1777759219 | 16.11° C | 63% | 1019.6 hPa | 0 mm | - | 125 W/m² | - |
| 1777758624 | 16.67° C | 59% | 1019.4 hPa | 0 mm | - | 363 W/m² | - |
| 1777756226 | 17.78° C | 56% | 1019.2 hPa | 0 mm | - | 503 W/m² | - |
| 1777751432 | 15.56° C | 64% | 1019.4 hPa | 0 mm | - | 613 W/m² | - |
| 1777744840 | 18.89° C | 44% | 1017.8 hPa | 0 mm | - | 808 W/m² | - |
| 1777740025 | 17.78° C | 56% | 1018.7 hPa | 0 mm | - | 678 W/m² | - |
| 1777738839 | 16.67° C | 58% | 1019 hPa | 0 mm | - | 714 W/m² | - |
| 1777736421 | 16.11° C | 63% | 1019 hPa | 0 mm | - | 475 W/m² | - |
| 1777734024 | 15° C | 61% | 1019.1 hPa | 0 mm | - | 427 W/m² | - |
| 1777732817 | 14.44° C | 61% | 1019 hPa | 0 mm | - | 323 W/m² | - |
| 1777729824 | 13.33° C | 78% | 1019 hPa | 0 mm | - | 452 W/m² | - |
| 1777728617 | 11.67° C | 84% | 1019 hPa | 0 mm | - | 101 W/m² | - |
| 1777724418 | 6.67° C | 99% | 1019 hPa | 0 mm | - | 81 W/m² | - |
| 1777721425 | 5° C | 99% | 1018.5 hPa | 0 mm | - | 14 W/m² | - |
| 1777720830 | 5° C | 99% | 1018.3 hPa | 0 mm | - | 8 W/m² | - |
| 1777716631 | 5° C | 99% | 1018.2 hPa | 0 mm | - | 0 W/m² | - |
| 1777714234 | 5° C | 99% | 1018 hPa | 0 mm | - | 0 W/m² | - |
* Rain latest hour (hover to see other rain measurements)
** Current wind speed in m/s (hover to see current wind gust speed)